sensor_id;sensor_type;location;lat;lon;timestamp;temperature;humidity
35645;DHT22;21764;52.042;6.830;2023-09-19T00:01:35;16.20;99.90
35645;DHT22;21764;52.042;6.830;2023-09-19T00:06:39;16.30;99.90
35645;DHT22;21764;52.042;6.830;2023-09-19T00:11:40;16.40;99.90
35645;DHT22;21764;52.042;6.830;2023-09-19T00:16:41;16.50;99.90
35645;DHT22;21764;52.042;6.830;2023-09-19T00:21:42;16.50;99.90
35645;DHT22;21764;52.042;6.830;2023-09-19T00:26:43;16.30;99.90
35645;DHT22;21764;52.042;6.830;2023-09-19T00:31:46;16.10;99.90
35645;DHT22;21764;52.042;6.830;2023-09-19T00:36:47;15.90;99.90
35645;DHT22;21764;52.042;6.830;2023-09-19T00:41:48;15.90;99.90
35645;DHT22;21764;52.042;6.830;2023-09-19T00:46:49;15.90;99.90
35645;DHT22;21764;52.042;6.830;2023-09-19T00:51:50;15.90;99.90
35645;DHT22;21764;52.042;6.830;2023-09-19T00:56:52;16.10;99.90
35645;DHT22;21764;52.042;6.830;2023-09-19T01:01:56;16.20;99.90
35645;DHT22;21764;52.042;6.830;2023-09-19T01:06:57;16.10;99.90
35645;DHT22;21764;52.042;6.830;2023-09-19T01:12:02;16.20;99.90
35645;DHT22;21764;52.042;6.830;2023-09-19T01:17:14;16.20;99.90
35645;DHT22;21764;52.042;6.830;2023-09-19T01:33:06;16.00;99.90
35645;DHT22;21764;52.042;6.830;2023-09-19T01:38:07;16.00;99.90
35645;DHT22;21764;52.042;6.830;2023-09-19T01:43:27;16.00;99.90
35645;DHT22;21764;52.042;6.830;2023-09-19T01:48:58;16.00;99.90
35645;DHT22;21764;52.042;6.830;2023-09-19T01:54:12;16.00;99.90
35645;DHT22;21764;52.042;6.830;2023-09-19T01:59:17;15.90;99.90
35645;DHT22;21764;52.042;6.830;2023-09-19T02:04:21;15.70;99.90
35645;DHT22;21764;52.042;6.830;2023-09-19T02:09:22;15.50;99.90
35645;DHT22;21764;52.042;6.830;2023-09-19T02:14:23;15.50;99.90
35645;DHT22;21764;52.042;6.830;2023-09-19T02:19:24;15.30;99.90
35645;DHT22;21764;52.042;6.830;2023-09-19T02:24:24;15.10;99.90
35645;DHT22;21764;52.042;6.830;2023-09-19T02:29:27;15.00;99.90
35645;DHT22;21764;52.042;6.830;2023-09-19T02:34:29;15.00;99.90
35645;DHT22;21764;52.042;6.830;2023-09-19T02:39:30;15.00;99.90
35645;DHT22;21764;52.042;6.830;2023-09-19T02:44:31;14.90;99.90
35645;DHT22;21764;52.042;6.830;2023-09-19T02:49:32;14.80;99.90
35645;DHT22;21764;52.042;6.830;2023-09-19T02:54:33;14.70;99.90
35645;DHT22;21764;52.042;6.830;2023-09-19T02:59:34;14.80;99.90
35645;DHT22;21764;52.042;6.830;2023-09-19T03:04:37;14.70;99.90
35645;DHT22;21764;52.042;6.830;2023-09-19T03:09:37;14.60;99.90
35645;DHT22;21764;52.042;6.830;2023-09-19T03:14:38;14.50;99.90
35645;DHT22;21764;52.042;6.830;2023-09-19T03:19:39;14.40;99.90
35645;DHT22;21764;52.042;6.830;2023-09-19T03:24:39;14.40;99.90
35645;DHT22;21764;52.042;6.830;2023-09-19T03:29:40;14.30;99.90
35645;DHT22;21764;52.042;6.830;2023-09-19T03:34:41;14.20;99.90
35645;DHT22;21764;52.042;6.830;2023-09-19T03:39:43;14.10;99.90
35645;DHT22;21764;52.042;6.830;2023-09-19T03:44:44;14.10;99.90
35645;DHT22;21764;52.042;6.830;2023-09-19T03:49:45;14.00;99.90
35645;DHT22;21764;52.042;6.830;2023-09-19T03:54:45;13.90;99.90
35645;DHT22;21764;52.042;6.830;2023-09-19T03:59:46;13.90;99.90
35645;DHT22;21764;52.042;6.830;2023-09-19T04:04:51;13.80;99.90
35645;DHT22;21764;52.042;6.830;2023-09-19T04:09:52;13.70;99.90
35645;DHT22;21764;52.042;6.830;2023-09-19T04:14:56;13.80;99.90
35645;DHT22;21764;52.042;6.830;2023-09-19T04:19:56;13.70;99.90
35645;DHT22;21764;52.042;6.830;2023-09-19T04:24:57;13.60;99.90
35645;DHT22;21764;52.042;6.830;2023-09-19T04:29:58;13.50;99.90
35645;DHT22;21764;52.042;6.830;2023-09-19T04:34:59;13.60;99.90
35645;DHT22;21764;52.042;6.830;2023-09-19T04:40:00;13.50;99.90
35645;DHT22;21764;52.042;6.830;2023-09-19T04:45:01;13.40;99.90
35645;DHT22;21764;52.042;6.830;2023-09-19T04:50:02;13.50;99.90
35645;DHT22;21764;52.042;6.830;2023-09-19T04:55:05;13.30;99.90
35645;DHT22;21764;52.042;6.830;2023-09-19T05:00:06;13.30;99.90
35645;DHT22;21764;52.042;6.830;2023-09-19T05:05:12;13.40;99.90
35645;DHT22;21764;52.042;6.830;2023-09-19T05:10:17;13.40;99.90
35645;DHT22;21764;52.042;6.830;2023-09-19T05:15:20;13.50;99.90
35645;DHT22;21764;52.042;6.830;2023-09-19T05:20:21;13.50;99.90
35645;DHT22;21764;52.042;6.830;2023-09-19T05:25:31;13.60;99.90
35645;DHT22;21764;52.042;6.830;2023-09-19T05:30:32;13.80;99.90
35645;DHT22;21764;52.042;6.830;2023-09-19T05:35:34;14.10;99.90
35645;DHT22;21764;52.042;6.830;2023-09-19T05:40:35;14.90;99.90
35645;DHT22;21764;52.042;6.830;2023-09-19T05:45:36;16.00;99.90
35645;DHT22;21764;52.042;6.830;2023-09-19T05:50:38;17.40;99.90
35645;DHT22;21764;52.042;6.830;2023-09-19T05:55:39;18.90;97.20
35645;DHT22;21764;52.042;6.830;2023-09-19T06:00:40;20.20;94.20
35645;DHT22;21764;52.042;6.830;2023-09-19T06:05:43;21.60;91.60
35645;DHT22;21764;52.042;6.830;2023-09-19T06:10:44;20.20;92.60
35645;DHT22;21764;52.042;6.830;2023-09-19T06:15:47;17.70;95.20
35645;DHT22;21764;52.042;6.830;2023-09-19T06:20:48;16.60;99.10
35645;DHT22;21764;52.042;6.830;2023-09-19T06:25:51;16.10;99.90
35645;DHT22;21764;52.042;6.830;2023-09-19T06:30:51;16.00;99.90
35645;DHT22;21764;52.042;6.830;2023-09-19T06:35:52;16.00;99.90
35645;DHT22;21764;52.042;6.830;2023-09-19T06:40:59;16.30;99.90
35645;DHT22;21764;52.042;6.830;2023-09-19T06:46:02;16.90;99.80
35645;DHT22;21764;52.042;6.830;2023-09-19T06:51:03;18.20;98.10
35645;DHT22;21764;52.042;6.830;2023-09-19T06:56:05;19.50;96.30
35645;DHT22;21764;52.042;6.830;2023-09-19T07:01:07;20.40;95.20
35645;DHT22;21764;52.042;6.830;2023-09-19T07:06:07;21.20;92.70
35645;DHT22;21764;52.042;6.830;2023-09-19T07:11:09;23.10;90.10
35645;DHT22;21764;52.042;6.830;2023-09-19T07:16:09;23.00;88.70
35645;DHT22;21764;52.042;6.830;2023-09-19T07:21:28;22.30;90.60
35645;DHT22;21764;52.042;6.830;2023-09-19T07:26:28;22.30;90.00
35645;DHT22;21764;52.042;6.830;2023-09-19T07:31:29;21.20;90.70
35645;DHT22;21764;52.042;6.830;2023-09-19T07:36:31;21.10;90.60
35645;DHT22;21764;52.042;6.830;2023-09-19T07:41:33;21.20;91.50
35645;DHT22;21764;52.042;6.830;2023-09-19T07:46:34;21.50;90.30
35645;DHT22;21764;52.042;6.830;2023-09-19T07:51:35;22.00;89.90
35645;DHT22;21764;52.042;6.830;2023-09-19T07:56:36;23.20;87.20
35645;DHT22;21764;52.042;6.830;2023-09-19T08:01:37;23.00;87.00
35645;DHT22;21764;52.042;6.830;2023-09-19T08:06:40;22.20;87.80
35645;DHT22;21764;52.042;6.830;2023-09-19T08:11:40;24.20;84.80
35645;DHT22;21764;52.042;6.830;2023-09-19T08:16:41;23.70;84.40
35645;DHT22;21764;52.042;6.830;2023-09-19T08:21:43;24.00;83.70
35645;DHT22;21764;52.042;6.830;2023-09-19T08:26:47;25.10;81.30
35645;DHT22;21764;52.042;6.830;2023-09-19T08:31:48;28.20;73.70
35645;DHT22;21764;52.042;6.830;2023-09-19T08:36:55;27.90;72.30
35645;DHT22;21764;52.042;6.830;2023-09-19T08:41:59;29.10;67.90
35645;DHT22;21764;52.042;6.830;2023-09-19T08:47:11;29.80;64.60
35645;DHT22;21764;52.042;6.830;2023-09-19T08:52:25;31.10;64.40
35645;DHT22;21764;52.042;6.830;2023-09-19T08:57:29;28.50;67.50
35645;DHT22;21764;52.042;6.830;2023-09-19T09:02:30;30.80;63.20
35645;DHT22;21764;52.042;6.830;2023-09-19T09:07:33;32.40;59.80
35645;DHT22;21764;52.042;6.830;2023-09-19T09:12:35;31.90;58.60
35645;DHT22;21764;52.042;6.830;2023-09-19T09:17:38;28.40;62.30
35645;DHT22;21764;52.042;6.830;2023-09-19T09:22:38;27.30;66.00
35645;DHT22;21764;52.042;6.830;2023-09-19T09:27:58;27.20;66.80
35645;DHT22;21764;52.042;6.830;2023-09-19T09:33:11;25.40;69.90
35645;DHT22;21764;52.042;6.830;2023-09-19T09:38:11;25.50;71.40
35645;DHT22;21764;52.042;6.830;2023-09-19T09:48:35;26.70;70.20
35645;DHT22;21764;52.042;6.830;2023-09-19T09:53:39;27.70;68.70
35645;DHT22;21764;52.042;6.830;2023-09-19T09:58:51;28.30;65.50
35645;DHT22;21764;52.042;6.830;2023-09-19T10:03:58;28.90;63.90
35645;DHT22;21764;52.042;6.830;2023-09-19T10:09:08;29.50;62.50
35645;DHT22;21764;52.042;6.830;2023-09-19T10:14:15;30.10;62.30
35645;DHT22;21764;52.042;6.830;2023-09-19T10:19:28;30.10;59.50
35645;DHT22;21764;52.042;6.830;2023-09-19T10:24:30;29.30;60.10
35645;DHT22;21764;52.042;6.830;2023-09-19T10:29:34;28.60;62.10
35645;DHT22;21764;52.042;6.830;2023-09-19T10:34:37;27.40;63.10
35645;DHT22;21764;52.042;6.830;2023-09-19T10:39:40;27.20;64.20
35645;DHT22;21764;52.042;6.830;2023-09-19T10:44:41;28.40;65.20
35645;DHT22;21764;52.042;6.830;2023-09-19T10:49:44;28.20;64.50
35645;DHT22;21764;52.042;6.830;2023-09-19T10:54:51;26.70;65.90
35645;DHT22;21764;52.042;6.830;2023-09-19T11:00:06;25.80;67.80
35645;DHT22;21764;52.042;6.830;2023-09-19T11:05:27;25.30;70.70
35645;DHT22;21764;52.042;6.830;2023-09-19T11:10:48;24.50;71.20
35645;DHT22;21764;52.042;6.830;2023-09-19T11:26:44;23.70;73.30
35645;DHT22;21764;52.042;6.830;2023-09-19T11:31:48;23.60;73.70
35645;DHT22;21764;52.042;6.830;2023-09-19T11:36:50;23.10;75.10
35645;DHT22;21764;52.042;6.830;2023-09-19T11:41:50;22.50;77.00
35645;DHT22;21764;52.042;6.830;2023-09-19T11:46:56;23.20;78.20
35645;DHT22;21764;52.042;6.830;2023-09-19T11:52:01;23.30;75.60
35645;DHT22;21764;52.042;6.830;2023-09-19T11:57:03;22.40;75.50
35645;DHT22;21764;52.042;6.830;2023-09-19T12:02:05;22.20;80.20
35645;DHT22;21764;52.042;6.830;2023-09-19T12:07:14;22.60;78.30
35645;DHT22;21764;52.042;6.830;2023-09-19T12:12:20;22.90;77.50
35645;DHT22;21764;52.042;6.830;2023-09-19T12:17:22;22.80;78.00
35645;DHT22;21764;52.042;6.830;2023-09-19T12:22:24;22.90;78.60
35645;DHT22;21764;52.042;6.830;2023-09-19T12:27:26;22.70;79.70
35645;DHT22;21764;52.042;6.830;2023-09-19T12:32:36;22.80;79.50
35645;DHT22;21764;52.042;6.830;2023-09-19T12:37:44;22.80;76.40
35645;DHT22;21764;52.042;6.830;2023-09-19T12:43:05;22.70;78.30
35645;DHT22;21764;52.042;6.830;2023-09-19T12:48:21;22.90;79.20
35645;DHT22;21764;52.042;6.830;2023-09-19T12:53:40;22.50;78.10
35645;DHT22;21764;52.042;6.830;2023-09-19T13:04:21;22.50;79.00
35645;DHT22;21764;52.042;6.830;2023-09-19T13:09:30;22.40;78.10
35645;DHT22;21764;52.042;6.830;2023-09-19T13:14:39;22.00;78.80
35645;DHT22;21764;52.042;6.830;2023-09-19T13:19:46;21.90;80.50
35645;DHT22;21764;52.042;6.830;2023-09-19T13:24:50;21.90;79.30
35645;DHT22;21764;52.042;6.830;2023-09-19T13:29:51;21.80;79.20
35645;DHT22;21764;52.042;6.830;2023-09-19T13:34:52;22.10;79.30
35645;DHT22;21764;52.042;6.830;2023-09-19T13:39:53;21.90;81.50
35645;DHT22;21764;52.042;6.830;2023-09-19T13:44:54;21.60;82.80
35645;DHT22;21764;52.042;6.830;2023-09-19T13:49:54;21.20;82.90
35645;DHT22;21764;52.042;6.830;2023-09-19T13:54:55;21.30;81.10
35645;DHT22;21764;52.042;6.830;2023-09-19T13:59:58;21.30;81.70
35645;DHT22;21764;52.042;6.830;2023-09-19T14:04:59;21.10;81.30
35645;DHT22;21764;52.042;6.830;2023-09-19T14:10:00;21.10;82.00
35645;DHT22;21764;52.042;6.830;2023-09-19T14:15:01;21.20;84.00
35645;DHT22;21764;52.042;6.830;2023-09-19T14:20:02;21.00;82.30
35645;DHT22;21764;52.042;6.830;2023-09-19T14:25:04;21.20;84.30
35645;DHT22;21764;52.042;6.830;2023-09-19T14:30:06;21.40;83.40
35645;DHT22;21764;52.042;6.830;2023-09-19T14:35:07;21.30;82.50
35645;DHT22;21764;52.042;6.830;2023-09-19T14:40:10;21.10;84.40
35645;DHT22;21764;52.042;6.830;2023-09-19T14:45:11;21.00;83.20
35645;DHT22;21764;52.042;6.830;2023-09-19T14:50:12;21.10;84.40
35645;DHT22;21764;52.042;6.830;2023-09-19T14:55:13;21.10;86.00
35645;DHT22;21764;52.042;6.830;2023-09-19T15:00:14;21.20;85.90
35645;DHT22;21764;52.042;6.830;2023-09-19T15:05:17;21.10;85.40
35645;DHT22;21764;52.042;6.830;2023-09-19T15:10:17;20.90;83.20
35645;DHT22;21764;52.042;6.830;2023-09-19T15:15:18;21.10;85.40
35645;DHT22;21764;52.042;6.830;2023-09-19T15:20:19;21.10;84.80
35645;DHT22;21764;52.042;6.830;2023-09-19T15:25:20;20.90;86.00
35645;DHT22;21764;52.042;6.830;2023-09-19T15:30:20;20.90;86.00
35645;DHT22;21764;52.042;6.830;2023-09-19T15:35:21;20.80;84.70
35645;DHT22;21764;52.042;6.830;2023-09-19T15:40:22;20.80;86.70
35645;DHT22;21764;52.042;6.830;2023-09-19T15:45:25;20.80;86.30
35645;DHT22;21764;52.042;6.830;2023-09-19T15:50:26;20.60;85.40
35645;DHT22;21764;52.042;6.830;2023-09-19T15:55:27;20.50;86.70
35645;DHT22;21764;52.042;6.830;2023-09-19T16:00:27;20.40;86.70
35645;DHT22;21764;52.042;6.830;2023-09-19T16:05:34;20.20;86.10
35645;DHT22;21764;52.042;6.830;2023-09-19T16:10:37;20.20;87.20
35645;DHT22;21764;52.042;6.830;2023-09-19T16:15:42;20.10;89.60
35645;DHT22;21764;52.042;6.830;2023-09-19T16:20:44;20.00;90.10
35645;DHT22;21764;52.042;6.830;2023-09-19T16:25:46;19.90;89.60
35645;DHT22;21764;52.042;6.830;2023-09-19T16:30:47;19.80;89.60
35645;DHT22;21764;52.042;6.830;2023-09-19T16:35:48;19.80;90.80
35645;DHT22;21764;52.042;6.830;2023-09-19T16:50:58;19.50;90.70
35645;DHT22;21764;52.042;6.830;2023-09-19T16:56:07;19.50;90.30
35645;DHT22;21764;52.042;6.830;2023-09-19T17:01:14;19.40;91.20
35645;DHT22;21764;52.042;6.830;2023-09-19T17:06:17;19.40;91.20
35645;DHT22;21764;52.042;6.830;2023-09-19T17:11:20;19.30;90.40
35645;DHT22;21764;52.042;6.830;2023-09-19T17:16:21;19.30;90.70
35645;DHT22;21764;52.042;6.830;2023-09-19T17:21:23;19.30;91.10
35645;DHT22;21764;52.042;6.830;2023-09-19T17:26:24;19.30;91.40
35645;DHT22;21764;52.042;6.830;2023-09-19T17:31:26;19.10;91.50
35645;DHT22;21764;52.042;6.830;2023-09-19T17:36:29;19.20;91.10
35645;DHT22;21764;52.042;6.830;2023-09-19T17:41:32;19.10;91.70
35645;DHT22;21764;52.042;6.830;2023-09-19T17:46:33;19.10;91.60
35645;DHT22;21764;52.042;6.830;2023-09-19T17:51:36;19.10;91.60
35645;DHT22;21764;52.042;6.830;2023-09-19T17:56:37;19.10;91.60
35645;DHT22;21764;52.042;6.830;2023-09-19T18:01:40;19.00;91.70
35645;DHT22;21764;52.042;6.830;2023-09-19T18:06:42;19.00;91.80
35645;DHT22;21764;52.042;6.830;2023-09-19T18:11:43;19.00;92.70
35645;DHT22;21764;52.042;6.830;2023-09-19T18:16:44;19.00;92.10
35645;DHT22;21764;52.042;6.830;2023-09-19T18:21:45;19.00;92.20
35645;DHT22;21764;52.042;6.830;2023-09-19T18:26:46;19.00;92.40
35645;DHT22;21764;52.042;6.830;2023-09-19T18:31:47;18.90;92.50
35645;DHT22;21764;52.042;6.830;2023-09-19T18:36:48;18.90;92.50
35645;DHT22;21764;52.042;6.830;2023-09-19T18:41:50;18.90;92.70
35645;DHT22;21764;52.042;6.830;2023-09-19T18:46:51;18.90;92.40
35645;DHT22;21764;52.042;6.830;2023-09-19T18:51:53;18.80;92.50
35645;DHT22;21764;52.042;6.830;2023-09-19T18:56:53;18.80;92.70
35645;DHT22;21764;52.042;6.830;2023-09-19T19:01:54;18.80;92.60
35645;DHT22;21764;52.042;6.830;2023-09-19T19:06:55;18.70;93.10
35645;DHT22;21764;52.042;6.830;2023-09-19T19:11:56;18.60;93.20
35645;DHT22;21764;52.042;6.830;2023-09-19T19:16:57;18.60;93.30
35645;DHT22;21764;52.042;6.830;2023-09-19T19:21:59;18.60;93.40
35645;DHT22;21764;52.042;6.830;2023-09-19T19:27:00;18.60;93.80
35645;DHT22;21764;52.042;6.830;2023-09-19T19:32:00;18.50;93.90
35645;DHT22;21764;52.042;6.830;2023-09-19T19:37:01;18.50;94.70
35645;DHT22;21764;52.042;6.830;2023-09-19T19:42:04;18.40;94.20
35645;DHT22;21764;52.042;6.830;2023-09-19T19:47:05;18.40;94.30
35645;DHT22;21764;52.042;6.830;2023-09-19T19:52:06;18.50;94.30
35645;DHT22;21764;52.042;6.830;2023-09-19T19:57:07;18.40;94.40
35645;DHT22;21764;52.042;6.830;2023-09-19T20:02:07;18.40;94.10
35645;DHT22;21764;52.042;6.830;2023-09-19T20:07:08;18.40;94.20
35645;DHT22;21764;52.042;6.830;2023-09-19T20:12:11;18.40;94.00
35645;DHT22;21764;52.042;6.830;2023-09-19T20:17:12;18.40;94.60
35645;DHT22;21764;52.042;6.830;2023-09-19T20:22:13;18.40;94.60
35645;DHT22;21764;52.042;6.830;2023-09-19T20:27:13;18.40;94.50
35645;DHT22;21764;52.042;6.830;2023-09-19T20:32:14;18.40;94.50
35645;DHT22;21764;52.042;6.830;2023-09-19T20:37:16;18.40;94.50
35645;DHT22;21764;52.042;6.830;2023-09-19T20:42:16;18.40;94.50
35645;DHT22;21764;52.042;6.830;2023-09-19T20:47:17;18.40;94.50
35645;DHT22;21764;52.042;6.830;2023-09-19T20:52:18;18.40;94.60
35645;DHT22;21764;52.042;6.830;2023-09-19T20:57:18;18.40;94.40
35645;DHT22;21764;52.042;6.830;2023-09-19T21:02:20;18.40;94.80
35645;DHT22;21764;52.042;6.830;2023-09-19T21:07:20;18.30;94.50
35645;DHT22;21764;52.042;6.830;2023-09-19T21:12:22;18.30;94.40
35645;DHT22;21764;52.042;6.830;2023-09-19T21:17:23;18.30;94.60
35645;DHT22;21764;52.042;6.830;2023-09-19T21:22:23;18.30;94.70
35645;DHT22;21764;52.042;6.830;2023-09-19T21:27:26;18.30;94.50
35645;DHT22;21764;52.042;6.830;2023-09-19T21:32:27;18.30;94.50
35645;DHT22;21764;52.042;6.830;2023-09-19T21:37:28;18.30;94.70
35645;DHT22;21764;52.042;6.830;2023-09-19T21:42:29;18.30;94.60
35645;DHT22;21764;52.042;6.830;2023-09-19T21:47:30;18.30;94.60
35645;DHT22;21764;52.042;6.830;2023-09-19T21:52:31;18.30;94.50
35645;DHT22;21764;52.042;6.830;2023-09-19T21:57:32;18.30;94.80
35645;DHT22;21764;52.042;6.830;2023-09-19T22:02:32;18.30;94.70
35645;DHT22;21764;52.042;6.830;2023-09-19T22:07:34;18.20;94.80
35645;DHT22;21764;52.042;6.830;2023-09-19T22:12:35;18.20;94.80
35645;DHT22;21764;52.042;6.830;2023-09-19T22:17:35;18.20;94.80
35645;DHT22;21764;52.042;6.830;2023-09-19T22:22:36;18.20;94.80
35645;DHT22;21764;52.042;6.830;2023-09-19T22:27:38;18.20;95.00
35645;DHT22;21764;52.042;6.830;2023-09-19T22:32:39;18.20;95.00
35645;DHT22;21764;52.042;6.830;2023-09-19T22:37:39;18.30;95.00
35645;DHT22;21764;52.042;6.830;2023-09-19T22:42:40;18.20;95.00
35645;DHT22;21764;52.042;6.830;2023-09-19T22:47:41;18.20;95.10
35645;DHT22;21764;52.042;6.830;2023-09-19T22:52:45;18.20;95.20
35645;DHT22;21764;52.042;6.830;2023-09-19T22:57:54;18.20;95.10
35645;DHT22;21764;52.042;6.830;2023-09-19T23:02:55;18.20;95.20
35645;DHT22;21764;52.042;6.830;2023-09-19T23:07:56;18.20;95.30
35645;DHT22;21764;52.042;6.830;2023-09-19T23:12:59;18.20;95.30
35645;DHT22;21764;52.042;6.830;2023-09-19T23:18:00;18.20;95.40
35645;DHT22;21764;52.042;6.830;2023-09-19T23:23:01;18.10;95.30
35645;DHT22;21764;52.042;6.830;2023-09-19T23:28:05;18.20;95.30
35645;DHT22;21764;52.042;6.830;2023-09-19T23:50:56;18.20;95.50
35645;DHT22;21764;52.042;6.830;2023-09-19T23:55:57;18.20;95.50
